Time;durP1;ratioP1;P1;durP2;ratioP2;P2;SDS_P1;SDS_P2;PMS_P1;PMS_P2;Temp;Humidity;BMP_temperature;BMP_pressure;BME280_temperature;BME280_humidity;BME280_pressure;Samples;Min_cycle;Max_cycle;Signal;HPM_P1;HPM_P2
2023/04/22 00:01:40;;;;;;;;;;;18.40;65.00;;;;;;4933319;29;860;-74
2023/04/22 00:04:06;;;;;;;;;;;18.30;64.90;;;;;;4932785;29;2244;-75
2023/04/22 00:06:31;;;;;;;;;;;18.30;64.90;;;;;;4933438;29;860;-75
2023/04/22 00:08:57;;;;;;;;;;;18.30;64.90;;;;;;4933184;29;853;-75
2023/04/22 00:11:22;;;;;;;;;;;18.30;65.00;;;;;;4931501;29;1004;-75
2023/04/22 00:13:48;;;;;;;;;;;18.30;65.00;;;;;;4932899;29;1390;-75
2023/04/22 00:16:13;;;;;;;;;;;18.30;65.00;;;;;;4933161;29;884;-75
2023/04/22 00:18:38;;;;;;;;;;;18.30;65.00;;;;;;4933380;29;959;-75
2023/04/22 00:21:05;;;;;;;;;;;18.30;65.00;;;;;;4934782;29;857;-73
2023/04/22 00:23:30;;;;;;;;;;;18.30;65.00;;;;;;4933150;29;1967;-74
2023/04/22 00:25:55;;;;;;;;;;;18.30;65.00;;;;;;4933230;29;901;-75
2023/04/22 00:28:21;;;;;;;;;;;18.30;65.10;;;;;;4933112;29;824;-75
2023/04/22 00:30:46;;;;;;;;;;;18.30;65.00;;;;;;4947673;29;945;-75
2023/04/22 00:33:12;;;;;;;;;;;18.30;65.10;;;;;;4933206;29;1477;-75
2023/04/22 00:35:37;;;;;;;;;;;18.30;65.10;;;;;;4932807;29;872;-75
2023/04/22 00:38:03;;;;;;;;;;;18.30;65.10;;;;;;4932914;29;912;-75
2023/04/22 00:40:28;;;;;;;;;;;18.30;65.10;;;;;;4932973;29;813;-75
2023/04/22 00:42:54;;;;;;;;;;;18.30;65.10;;;;;;4932451;29;1906;-75
2023/04/22 00:45:19;;;;;;;;;;;18.30;65.20;;;;;;4931746;29;1083;-74
2023/04/22 00:47:45;;;;;;;;;;;18.30;65.10;;;;;;4932882;29;793;-74
2023/04/22 00:50:10;;;;;;;;;;;18.30;65.20;;;;;;4932935;29;883;-75
2023/04/22 00:52:36;;;;;;;;;;;18.30;65.20;;;;;;4932543;29;849;-75
2023/04/22 00:55:01;;;;;;;;;;;18.30;65.20;;;;;;4932769;29;1316;-74
2023/04/22 00:57:27;;;;;;;;;;;18.30;65.20;;;;;;4932714;29;1246;-75
2023/04/22 00:59:53;;;;;;;;;;;18.30;65.20;;;;;;4931591;29;801;-75
2023/04/22 01:02:18;;;;;;;;;;;18.30;65.20;;;;;;4932674;29;1903;-75
2023/04/22 01:04:44;;;;;;;;;;;18.30;65.20;;;;;;4933157;29;1286;-75
2023/04/22 01:07:10;;;;;;;;;;;18.30;65.30;;;;;;4934627;29;872;-75
2023/04/22 01:09:35;;;;;;;;;;;18.30;65.30;;;;;;4936448;29;872;-74
2023/04/22 01:12:01;;;;;;;;;;;18.30;65.30;;;;;;4936466;29;943;-74
2023/04/22 01:14:26;;;;;;;;;;;18.30;65.30;;;;;;4950843;29;1288;-75
2023/04/22 01:16:54;;;;;;;;;;;18.30;65.30;;;;;;4934881;29;1031;-75
2023/04/22 01:19:20;;;;;;;;;;;18.30;65.30;;;;;;4936074;29;1025;-75
2023/04/22 01:21:46;;;;;;;;;;;18.20;65.20;;;;;;4950738;29;1389;-75
2023/04/22 01:24:11;;;;;;;;;;;18.30;65.40;;;;;;4935815;29;1911;-75
2023/04/22 01:26:37;;;;;;;;;;;18.30;65.40;;;;;;4936156;29;996;-75
2023/04/22 01:29:02;;;;;;;;;;;18.20;65.40;;;;;;4950839;29;1430;-75
2023/04/22 01:31:28;;;;;;;;;;;18.30;65.40;;;;;;4950702;28;1204;-75
2023/04/22 01:33:53;;;;;;;;;;;18.30;65.40;;;;;;4950196;28;1401;-75
2023/04/22 01:36:19;;;;;;;;;;;18.20;65.30;;;;;;4934577;29;995;-75
2023/04/22 01:38:44;;;;;;;;;;;18.20;65.40;;;;;;4934117;29;1304;-75
2023/04/22 01:41:10;;;;;;;;;;;18.20;65.40;;;;;;4935325;29;1157;-75
2023/04/22 01:43:35;;;;;;;;;;;18.20;65.40;;;;;;4933611;29;1903;-74
2023/04/22 01:46:01;;;;;;;;;;;18.20;65.40;;;;;;4935065;29;844;-75
2023/04/22 01:48:27;;;;;;;;;;;18.20;65.40;;;;;;4950278;29;934;-75
2023/04/22 01:50:52;;;;;;;;;;;18.20;65.40;;;;;;4934215;29;1034;-75
2023/04/22 01:53:17;;;;;;;;;;;18.20;65.50;;;;;;4934772;29;1214;-75
2023/04/22 01:55:43;;;;;;;;;;;18.20;65.40;;;;;;4950242;29;1019;-75
2023/04/22 01:58:08;;;;;;;;;;;18.20;65.40;;;;;;4934336;29;950;-75
2023/04/22 02:00:34;;;;;;;;;;;18.20;65.40;;;;;;4935131;29;863;-74
2023/04/22 02:02:59;;;;;;;;;;;18.20;65.50;;;;;;4949883;29;1902;-75
2023/04/22 02:05:26;;;;;;;;;;;18.20;65.50;;;;;;4935443;29;1007;-75
2023/04/22 02:07:52;;;;;;;;;;;18.20;65.50;;;;;;4951116;29;825;-75
2023/04/22 02:10:17;;;;;;;;;;;18.20;65.50;;;;;;4936108;29;1588;-75
2023/04/22 02:12:43;;;;;;;;;;;18.20;65.50;;;;;;4934723;29;891;-75
2023/04/22 02:15:08;;;;;;;;;;;18.20;65.50;;;;;;4949482;28;1232;-75
2023/04/22 02:17:34;;;;;;;;;;;18.20;65.50;;;;;;4935243;29;879;-75
2023/04/22 02:20:01;;;;;;;;;;;18.20;65.50;;;;;;4935005;29;853;-75
2023/04/22 02:22:28;;;;;;;;;;;18.20;65.60;;;;;;4934919;29;1906;-75
2023/04/22 02:24:53;;;;;;;;;;;18.20;65.50;;;;;;4934505;29;1256;-75
2023/04/22 02:27:19;;;;;;;;;;;18.20;65.60;;;;;;4934713;29;975;-74
2023/04/22 02:29:44;;;;;;;;;;;18.20;65.60;;;;;;4934738;29;885;-74
2023/04/22 02:32:10;;;;;;;;;;;18.20;65.60;;;;;;4949800;29;1185;-75
2023/04/22 02:34:35;;;;;;;;;;;18.20;65.60;;;;;;4935026;29;1260;-75
2023/04/22 02:37:01;;;;;;;;;;;18.20;65.60;;;;;;4934780;29;891;-75
2023/04/22 02:39:26;;;;;;;;;;;18.20;65.60;;;;;;4934580;29;899;-75
2023/04/22 02:41:52;;;;;;;;;;;18.20;65.60;;;;;;4934671;29;936;-75
2023/04/22 02:44:17;;;;;;;;;;;18.20;65.60;;;;;;4934207;29;1927;-74
2023/04/22 02:46:43;;;;;;;;;;;18.20;65.60;;;;;;4934637;29;816;-75
2023/04/22 02:49:08;;;;;;;;;;;18.20;65.70;;;;;;4934524;29;841;-75
2023/04/22 02:51:36;;;;;;;;;;;18.20;65.60;;;;;;4934689;29;1038;-74
2023/04/22 02:54:01;;;;;;;;;;;18.20;65.70;;;;;;4932008;29;1268;-75
2023/04/22 02:56:27;;;;;;;;;;;18.20;65.70;;;;;;4933793;29;825;-75
2023/04/22 02:58:52;;;;;;;;;;;18.20;65.70;;;;;;4934523;29;869;-75
2023/04/22 03:01:18;;;;;;;;;;;18.20;65.70;;;;;;4934348;29;944;-75
2023/04/22 03:03:43;;;;;;;;;;;18.10;65.60;;;;;;4933655;29;1902;-74
2023/04/22 03:06:09;;;;;;;;;;;18.20;65.70;;;;;;4933069;29;1350;-75
2023/04/22 03:08:34;;;;;;;;;;;18.20;65.70;;;;;;4925095;29;1124;-75
2023/04/22 03:11:00;;;;;;;;;;;18.10;65.70;;;;;;4934322;29;1085;-75
2023/04/22 03:13:25;;;;;;;;;;;18.20;65.70;;;;;;4933967;29;1377;-75
2023/04/22 03:15:51;;;;;;;;;;;18.20;65.70;;;;;;4934520;29;962;-75
2023/04/22 03:18:16;;;;;;;;;;;18.20;65.70;;;;;;4948890;29;1424;-75
2023/04/22 03:20:42;;;;;;;;;;;18.20;65.70;;;;;;4934304;29;931;-75
2023/04/22 03:23:07;;;;;;;;;;;18.20;65.80;;;;;;4933542;29;1978;-75
2023/04/22 03:25:34;;;;;;;;;;;18.20;65.80;;;;;;4934337;29;880;-75
2023/04/22 03:27:59;;;;;;;;;;;18.10;65.70;;;;;;4932723;29;943;-75
2023/04/22 03:30:25;;;;;;;;;;;18.20;65.80;;;;;;4934192;29;856;-75
2023/04/22 03:32:52;;;;;;;;;;;18.20;65.80;;;;;;4934012;29;1086;-75
2023/04/22 03:35:18;;;;;;;;;;;18.10;65.70;;;;;;4948415;29;1884;-75
2023/04/22 03:37:44;;;;;;;;;;;18.10;65.80;;;;;;4933770;29;939;-74
2023/04/22 03:40:09;;;;;;;;;;;18.10;65.70;;;;;;4948917;29;876;-75
2023/04/22 03:42:35;;;;;;;;;;;18.10;65.70;;;;;;4933722;29;1969;-74
2023/04/22 03:45:00;;;;;;;;;;;18.10;65.70;;;;;;4933000;29;1346;-74
2023/04/22 03:47:26;;;;;;;;;;;18.20;65.90;;;;;;4933560;29;1171;-74
2023/04/22 03:49:51;;;;;;;;;;;18.10;65.80;;;;;;4933388;29;814;-74
2023/04/22 03:52:16;;;;;;;;;;;18.10;65.80;;;;;;4933445;29;889;-75
2023/04/22 03:54:42;;;;;;;;;;;18.10;65.80;;;;;;4933551;29;1201;-74
2023/04/22 03:57:07;;;;;;;;;;;18.10;65.80;;;;;;4934744;29;889;-73
2023/04/22 03:59:33;;;;;;;;;;;18.10;65.80;;;;;;4933947;29;819;-73
2023/04/22 04:01:58;;;;;;;;;;;18.10;65.80;;;;;;4932842;29;884;-74
2023/04/22 04:04:24;;;;;;;;;;;18.10;65.80;;;;;;4932357;29;1987;-75
2023/04/22 04:06:50;;;;;;;;;;;18.10;65.80;;;;;;4932704;29;867;-74
2023/04/22 04:09:15;;;;;;;;;;;18.10;65.80;;;;;;4932012;29;861;-74
2023/04/22 04:11:41;;;;;;;;;;;18.10;65.80;;;;;;4933085;29;1614;-74
2023/04/22 04:14:06;;;;;;;;;;;18.20;65.80;;;;;;4947525;29;1288;-75
2023/04/22 04:16:32;;;;;;;;;;;18.20;65.70;;;;;;4946595;29;1312;-74
2023/04/22 04:18:58;;;;;;;;;;;18.20;65.60;;;;;;4932265;29;826;-74
2023/04/22 04:21:23;;;;;;;;;;;18.20;65.50;;;;;;4948103;29;935;-74
2023/04/22 04:23:48;;;;;;;;;;;18.30;65.40;;;;;;4932881;29;1974;-74
2023/04/22 04:26:14;;;;;;;;;;;18.30;65.30;;;;;;4931614;29;870;-74
2023/04/22 04:28:40;;;;;;;;;;;18.30;65.20;;;;;;4932275;29;762;-74
2023/04/22 04:31:05;;;;;;;;;;;18.30;65.10;;;;;;4932967;29;813;-74
2023/04/22 04:33:31;;;;;;;;;;;18.40;65.00;;;;;;4931863;29;1353;-73
2023/04/22 04:35:57;;;;;;;;;;;18.40;64.90;;;;;;4933057;29;860;-71
2023/04/22 04:38:24;;;;;;;;;;;18.40;64.80;;;;;;4933893;29;1074;-74
2023/04/22 04:40:49;;;;;;;;;;;18.40;64.80;;;;;;4948423;29;1444;-71
2023/04/22 04:43:15;;;;;;;;;;;18.40;64.70;;;;;;4950057;29;1987;-71
2023/04/22 04:45:45;;;;;;;;;;;18.50;64.60;;;;;;4936246;29;2119;-70
2023/04/22 04:48:13;;;;;;;;;;;18.50;64.40;;;;;;4936719;29;1368;-72
2023/04/22 04:50:42;;;;;;;;;;;18.60;64.30;;;;;;4951135;29;1555;-72
2023/04/22 04:53:10;;;;;;;;;;;18.70;64.30;;;;;;4950429;29;1265;-72
2023/04/22 04:55:36;;;;;;;;;;;18.80;64.10;;;;;;4936195;29;865;-72
2023/04/22 04:58:01;;;;;;;;;;;18.90;63.90;;;;;;4936655;29;836;-71
2023/04/22 05:00:27;;;;;;;;;;;19.10;63.70;;;;;;4936417;29;1062;-70
2023/04/22 05:02:52;;;;;;;;;;;19.10;63.40;;;;;;4935866;29;1902;-71
2023/04/22 05:05:18;;;;;;;;;;;19.20;63.00;;;;;;4936388;29;1402;-72
2023/04/22 05:07:43;;;;;;;;;;;19.40;62.80;;;;;;4936259;29;1194;-72
2023/04/22 05:10:09;;;;;;;;;;;19.40;62.50;;;;;;4934906;29;904;-72
2023/04/22 05:12:34;;;;;;;;;;;19.50;62.20;;;;;;4936015;29;825;-72
2023/04/22 05:15:00;;;;;;;;;;;19.60;62.00;;;;;;4936041;29;1447;-73
2023/04/22 05:17:25;;;;;;;;;;;19.70;61.70;;;;;;4934942;29;1412;-73
2023/04/22 05:19:51;;;;;;;;;;;19.80;61.50;;;;;;4934388;29;1700;-72
2023/04/22 05:22:17;;;;;;;;;;;19.80;61.20;;;;;;4935765;29;1957;-71
2023/04/22 05:24:42;;;;;;;;;;;19.90;61.00;;;;;;4934326;29;1350;-72
2023/04/22 05:27:08;;;;;;;;;;;20.00;60.90;;;;;;4934470;29;915;-72
2023/04/22 05:29:33;;;;;;;;;;;20.00;60.60;;;;;;4935673;29;847;-72
2023/04/22 05:31:59;;;;;;;;;;;20.10;60.50;;;;;;4933227;29;1190;-73
2023/04/22 05:34:24;;;;;;;;;;;20.10;60.40;;;;;;4935587;29;1217;-72
2023/04/22 05:36:50;;;;;;;;;;;20.10;60.30;;;;;;4935843;29;893;-72
2023/04/22 05:39:15;;;;;;;;;;;20.20;60.20;;;;;;4950444;29;900;-73
2023/04/22 05:41:41;;;;;;;;;;;20.20;60.00;;;;;;4950751;29;960;-73
2023/04/22 05:44:06;;;;;;;;;;;20.20;60.00;;;;;;4950302;29;1898;-73
2023/04/22 05:46:32;;;;;;;;;;;20.20;59.90;;;;;;4935831;29;936;-73
2023/04/22 05:48:57;;;;;;;;;;;20.30;59.90;;;;;;4935703;29;915;-73
2023/04/22 05:51:23;;;;;;;;;;;20.30;59.90;;;;;;4949878;29;1664;-72
2023/04/22 05:53:48;;;;;;;;;;;20.30;59.80;;;;;;4935013;29;1268;-71
2023/04/22 05:56:14;;;;;;;;;;;20.30;59.80;;;;;;4935525;29;888;-72
2023/04/22 05:58:39;;;;;;;;;;;20.30;59.80;;;;;;4935225;29;829;-74
2023/04/22 06:01:05;;;;;;;;;;;20.40;59.70;;;;;;4935523;29;828;-72
2023/04/22 06:03:30;;;;;;;;;;;20.40;59.70;;;;;;4934510;29;2018;-71
2023/04/22 06:05:56;;;;;;;;;;;20.40;59.70;;;;;;4934310;29;823;-72
2023/04/22 06:08:21;;;;;;;;;;;20.40;59.70;;;;;;4935034;29;858;-71
2023/04/22 06:10:47;;;;;;;;;;;20.40;59.70;;;;;;4935091;29;1169;-70
2023/04/22 06:13:12;;;;;;;;;;;20.40;59.60;;;;;;4949549;29;1288;-71
2023/04/22 06:15:37;;;;;;;;;;;20.50;59.70;;;;;;4935208;29;1011;-72
2023/04/22 06:18:03;;;;;;;;;;;20.50;59.60;;;;;;4935358;29;929;-70
2023/04/22 06:20:31;;;;;;;;;;;20.50;59.60;;;;;;4934659;29;845;-71
2023/04/22 06:22:57;;;;;;;;;;;20.50;59.60;;;;;;4934762;29;1871;-72
2023/04/22 06:25:22;;;;;;;;;;;20.50;59.60;;;;;;4949390;29;876;-72
2023/04/22 06:27:48;;;;;;;;;;;20.50;59.60;;;;;;4933700;29;1047;-72
2023/04/22 06:30:13;;;;;;;;;;;20.50;59.60;;;;;;4934751;29;944;-72
2023/04/22 06:32:39;;;;;;;;;;;20.50;59.60;;;;;;4934587;29;904;-71
2023/04/22 06:35:05;;;;;;;;;;;20.50;59.50;;;;;;4936207;29;1476;-72
2023/04/22 06:37:30;;;;;;;;;;;20.50;59.50;;;;;;4934882;29;841;-72
2023/04/22 06:39:56;;;;;;;;;;;20.60;59.60;;;;;;4945508;29;1700;-69
2023/04/22 06:42:21;;;;;;;;;;;20.50;59.50;;;;;;4933669;29;1936;-70
2023/04/22 06:44:46;;;;;;;;;;;20.60;59.60;;;;;;4934221;29;1264;-70
2023/04/22 06:47:12;;;;;;;;;;;20.60;59.50;;;;;;4934357;29;876;-69
2023/04/22 06:49:38;;;;;;;;;;;20.60;59.50;;;;;;4934494;29;919;-68
2023/04/22 06:52:04;;;;;;;;;;;20.60;59.50;;;;;;4933087;29;856;-69
2023/04/22 06:54:30;;;;;;;;;;;20.60;59.50;;;;;;4932876;29;1359;-69
2023/04/22 06:56:56;;;;;;;;;;;20.60;59.50;;;;;;4934108;29;945;-69
2023/04/22 06:59:21;;;;;;;;;;;20.60;59.50;;;;;;4932300;29;1882;-72
2023/04/22 07:01:47;;;;;;;;;;;20.60;59.50;;;;;;4931492;29;1376;-72
2023/04/22 07:04:12;;;;;;;;;;;20.60;59.50;;;;;;4948118;29;1910;-71
2023/04/22 07:06:38;;;;;;;;;;;20.70;59.50;;;;;;4932903;29;1887;-71
2023/04/22 07:09:04;;;;;;;;;;;20.70;59.50;;;;;;4932553;29;1305;-71
2023/04/22 07:11:30;;;;;;;;;;;20.70;59.50;;;;;;4933719;29;1344;-71
2023/04/22 07:13:56;;;;;;;;;;;20.70;59.50;;;;;;4947241;29;1360;-72
2023/04/22 07:16:21;;;;;;;;;;;20.70;59.60;;;;;;4933786;29;1339;-72
2023/04/22 07:18:47;;;;;;;;;;;20.60;59.50;;;;;;4948274;29;1198;-72
2023/04/22 07:21:12;;;;;;;;;;;20.70;59.60;;;;;;4948346;29;1307;-72
2023/04/22 07:23:38;;;;;;;;;;;20.70;59.70;;;;;;4934211;29;1974;-72
2023/04/22 07:26:03;;;;;;;;;;;20.60;60.30;;;;;;4934602;29;774;-71
2023/04/22 07:28:29;;;;;;;;;;;20.60;59.70;;;;;;4933546;29;797;-72
2023/04/22 07:30:54;;;;;;;;;;;20.60;60.30;;;;;;4932426;29;892;-72
2023/04/22 07:33:20;;;;;;;;;;;20.60;61.20;;;;;;4932258;29;1429;-71
2023/04/22 07:35:46;;;;;;;;;;;20.60;61.50;;;;;;4933623;29;944;-72
2023/04/22 07:38:11;;;;;;;;;;;20.70;62.00;;;;;;4948292;29;1611;-72
2023/04/22 07:40:37;;;;;;;;;;;20.60;62.30;;;;;;4933732;29;1466;-71
2023/04/22 07:43:04;;;;;;;;;;;20.60;63.10;;;;;;4933163;29;1972;-71
2023/04/22 07:45:29;;;;;;;;;;;20.60;63.20;;;;;;4933435;29;920;-71
2023/04/22 07:47:55;;;;;;;;;;;20.60;63.20;;;;;;4948207;29;926;-72
2023/04/22 07:50:20;;;;;;;;;;;20.60;63.20;;;;;;4922625;29;1301;-71
2023/04/22 07:52:46;;;;;;;;;;;20.60;63.30;;;;;;4933264;29;847;-72
2023/04/22 07:55:11;;;;;;;;;;;20.60;63.30;;;;;;4932929;29;1394;-71
2023/04/22 07:57:38;;;;;;;;;;;20.60;63.70;;;;;;4949099;28;1282;-72
2023/04/22 08:00:07;;;;;;;;;;;20.50;63.70;;;;;;4931987;29;1493;-72
2023/04/22 08:02:33;;;;;;;;;;;20.60;63.80;;;;;;4932677;29;1903;-71
2023/04/22 08:04:58;;;;;;;;;;;20.50;63.70;;;;;;4947318;29;1256;-72
2023/04/22 08:07:24;;;;;;;;;;;20.50;63.90;;;;;;4947719;29;1027;-72
2023/04/22 08:09:49;;;;;;;;;;;20.50;63.40;;;;;;4932892;29;816;-71
2023/04/22 08:12:15;;;;;;;;;;;20.50;63.40;;;;;;4932806;29;861;-71
2023/04/22 08:14:40;;;;;;;;;;;20.50;63.60;;;;;;4932578;29;1281;-72
2023/04/22 08:17:06;;;;;;;;;;;20.40;63.70;;;;;;4933005;29;849;-71
2023/04/22 08:19:31;;;;;;;;;;;20.40;63.70;;;;;;4947619;28;1304;-71
2023/04/22 08:21:57;;;;;;;;;;;20.40;64.00;;;;;;4947616;29;1248;-71
2023/04/22 08:24:22;;;;;;;;;;;20.30;64.40;;;;;;4932469;29;1911;-71
2023/04/22 08:26:48;;;;;;;;;;;20.30;65.00;;;;;;4931788;29;829;-71
2023/04/22 08:29:13;;;;;;;;;;;20.30;65.70;;;;;;4931668;29;1313;-71
2023/04/22 08:31:39;;;;;;;;;;;20.30;65.80;;;;;;4928022;29;1806;-71
2023/04/22 08:34:04;;;;;;;;;;;20.20;66.40;;;;;;4947144;28;1305;-71
2023/04/22 08:36:30;;;;;;;;;;;20.20;66.60;;;;;;4930425;29;1788;-70
2023/04/22 08:38:56;;;;;;;;;;;20.20;67.00;;;;;;4932846;29;1293;-71
2023/04/22 08:41:23;;;;;;;;;;;20.20;67.30;;;;;;4932695;29;1253;-70
2023/04/22 08:43:48;;;;;;;;;;;20.20;67.50;;;;;;4932419;29;1966;-70
2023/04/22 08:46:14;;;;;;;;;;;20.20;68.00;;;;;;4931634;29;1019;-70
2023/04/22 08:48:40;;;;;;;;;;;20.20;67.90;;;;;;4931527;29;815;-71
2023/04/22 08:51:05;;;;;;;;;;;20.20;67.90;;;;;;4932682;29;896;-70
2023/04/22 08:53:31;;;;;;;;;;;20.20;68.00;;;;;;4932608;29;1288;-71
2023/04/22 08:55:56;;;;;;;;;;;20.10;68.10;;;;;;4932726;29;857;-70
2023/04/22 08:58:22;;;;;;;;;;;20.10;68.20;;;;;;4931584;29;931;-70
2023/04/22 09:00:47;;;;;;;;;;;20.10;68.20;;;;;;4931741;29;996;-70
2023/04/22 09:03:13;;;;;;;;;;;20.10;68.20;;;;;;4932354;29;2017;-71
2023/04/22 09:05:39;;;;;;;;;;;20.10;68.20;;;;;;4931296;29;1558;-71
2023/04/22 09:08:04;;;;;;;;;;;20.10;68.00;;;;;;4933435;29;955;-70
2023/04/22 09:10:30;;;;;;;;;;;20.10;68.00;;;;;;4933042;29;2036;-71
2023/04/22 09:12:55;;;;;;;;;;;20.00;68.10;;;;;;4932501;29;1022;-70
2023/04/22 09:15:21;;;;;;;;;;;20.00;67.90;;;;;;4932379;29;1478;-71
2023/04/22 09:17:46;;;;;;;;;;;20.10;68.20;;;;;;4931229;29;956;-71
2023/04/22 09:20:14;;;;;;;;;;;20.00;68.00;;;;;;4931131;29;1278;-70
2023/04/22 09:22:41;;;;;;;;;;;20.00;68.00;;;;;;4932026;29;1902;-71
2023/04/22 09:25:22;;;;;;;;;;;20.00;68.00;;;;;;4948214;28;1258;-70
2023/04/22 09:27:49;;;;;;;;;;;20.00;68.00;;;;;;4934522;29;866;-71
2023/04/22 09:30:17;;;;;;;;;;;20.00;68.00;;;;;;4934569;29;856;-70
2023/04/22 09:32:50;;;;;;;;;;;20.00;68.20;;;;;;4950215;28;1230;-72
2023/04/22 09:35:15;;;;;;;;;;;20.00;68.30;;;;;;4935965;29;1375;-71
2023/04/22 09:37:41;;;;;;;;;;;19.90;68.50;;;;;;4933700;29;1051;-71
2023/04/22 09:40:06;;;;;;;;;;;19.90;68.60;;;;;;4935459;29;872;-71
2023/04/22 09:42:32;;;;;;;;;;;19.90;68.90;;;;;;4934077;29;1907;-71
2023/04/22 09:44:57;;;;;;;;;;;19.90;69.10;;;;;;4950077;29;1415;-71
2023/04/22 09:47:23;;;;;;;;;;;19.90;69.40;;;;;;4950241;29;1292;-70
2023/04/22 09:49:48;;;;;;;;;;;19.90;69.60;;;;;;4950418;29;833;-71
2023/04/22 09:52:23;;;;;;;;;;;19.90;69.80;;;;;;4935364;29;845;-70
2023/04/22 09:54:50;;;;;;;;;;;19.90;69.80;;;;;;4934895;29;1338;-71
2023/04/22 09:57:16;;;;;;;;;;;19.90;69.90;;;;;;4935370;29;861;-71
2023/04/22 09:59:41;;;;;;;;;;;19.90;69.80;;;;;;4949856;29;884;-70
2023/04/22 10:02:08;;;;;;;;;;;19.90;69.80;;;;;;4934678;29;2151;-71
2023/04/22 10:04:33;;;;;;;;;;;19.90;69.80;;;;;;4932936;29;1898;-70
2023/04/22 10:07:01;;;;;;;;;;;19.90;69.80;;;;;;4949954;29;1249;-70
2023/04/22 10:09:26;;;;;;;;;;;19.80;69.70;;;;;;4935132;29;1543;-71
2023/04/22 10:11:52;;;;;;;;;;;19.90;69.80;;;;;;4935094;29;920;-71
2023/04/22 10:14:18;;;;;;;;;;;19.90;69.80;;;;;;4934680;29;1529;-71
2023/04/22 10:16:45;;;;;;;;;;;19.80;69.70;;;;;;4949347;29;1360;-70
2023/04/22 10:19:12;;;;;;;;;;;19.80;69.90;;;;;;4949748;29;963;-71
2023/04/22 10:21:39;;;;;;;;;;;19.80;69.80;;;;;;4948807;29;2211;-70
2023/04/22 10:24:05;;;;;;;;;;;19.80;69.80;;;;;;4948380;29;1982;-70
2023/04/22 10:26:37;;;;;;;;;;;19.80;69.70;;;;;;4934133;29;1406;-71
2023/04/22 10:29:04;;;;;;;;;;;19.80;69.60;;;;;;4932363;29;876;-71
2023/04/22 10:31:29;;;;;;;;;;;19.80;69.60;;;;;;4948491;29;813;-71
2023/04/22 10:34:08;;;;;;;;;;;19.80;69.50;;;;;;4932220;29;2290;-71
2023/04/22 10:36:33;;;;;;;;;;;19.80;69.60;;;;;;4949007;28;1511;-71
2023/04/22 10:38:59;;;;;;;;;;;19.80;69.50;;;;;;4934640;29;1331;-71
2023/04/22 10:41:33;;;;;;;;;;;19.80;69.50;;;;;;4934427;29;1385;-71
2023/04/22 10:44:00;;;;;;;;;;;19.80;69.40;;;;;;4932568;29;1972;-71
2023/04/22 10:46:38;;;;;;;;;;;19.80;69.40;;;;;;4933397;29;1313;-71
2023/04/22 10:49:16;;;;;;;;;;;19.80;69.40;;;;;;4934600;29;1293;-71
2023/04/22 10:51:45;;;;;;;;;;;19.80;69.40;;;;;;4948628;29;913;-71
2023/04/22 10:54:35;;;;;;;;;;;19.70;69.30;;;;;;4933946;29;1315;-71
2023/04/22 10:57:08;;;;;;;;;;;19.80;69.40;;;;;;4933627;29;2157;-72
2023/04/22 10:59:34;;;;;;;;;;;19.70;69.40;;;;;;4934150;29;1473;-71
2023/04/22 11:02:06;;;;;;;;;;;19.70;69.40;;;;;;4934578;29;1312;-71
2023/04/22 11:04:31;;;;;;;;;;;19.70;69.40;;;;;;4948306;29;1890;-71
2023/04/22 11:07:15;;;;;;;;;;;19.70;69.40;;;;;;4934026;29;1255;-71
2023/04/22 11:09:44;;;;;;;;;;;19.70;69.40;;;;;;4933821;29;834;-71
2023/04/22 11:12:29;;;;;;;;;;;19.70;69.30;;;;;;4948666;29;1491;-71
2023/04/22 11:14:54;;;;;;;;;;;19.70;69.40;;;;;;4933127;29;1297;-71
2023/04/22 11:17:20;;;;;;;;;;;19.70;69.30;;;;;;4932349;29;2060;-71
2023/04/22 11:19:45;;;;;;;;;;;19.70;69.40;;;;;;4948828;29;1416;-71
2023/04/22 11:22:11;;;;;;;;;;;19.70;69.30;;;;;;4934415;29;912;-71
2023/04/22 11:24:36;;;;;;;;;;;19.70;69.40;;;;;;4948213;29;1923;-71
2023/04/22 11:27:02;;;;;;;;;;;19.70;69.40;;;;;;4948862;29;1751;-71
2023/04/22 11:29:27;;;;;;;;;;;19.70;69.40;;;;;;4949118;29;1259;-71
2023/04/22 11:31:53;;;;;;;;;;;19.70;69.40;;;;;;4934051;29;877;-71
2023/04/22 11:34:18;;;;;;;;;;;19.70;69.40;;;;;;4931955;29;2125;-70
2023/04/22 11:36:44;;;;;;;;;;;19.70;69.40;;;;;;4933402;29;1340;-71
2023/04/22 11:39:13;;;;;;;;;;;19.70;69.50;;;;;;4932340;29;1214;-71
2023/04/22 11:41:40;;;;;;;;;;;19.70;69.40;;;;;;4933363;29;1350;-71
2023/04/22 11:44:05;;;;;;;;;;;19.70;69.50;;;;;;4933418;29;1918;-70
2023/04/22 11:46:37;;;;;;;;;;;19.70;69.50;;;;;;4933345;29;1178;-71
2023/04/22 11:49:15;;;;;;;;;;;19.70;69.50;;;;;;4932862;29;852;-71
2023/04/22 11:51:53;;;;;;;;;;;19.60;69.50;;;;;;4933368;29;956;-71
2023/04/22 11:54:28;;;;;;;;;;;19.70;69.80;;;;;;4931985;29;1234;-71
2023/04/22 11:56:54;;;;;;;;;;;19.70;70.60;;;;;;4931276;29;813;-71
2023/04/22 11:59:19;;;;;;;;;;;19.70;70.30;;;;;;4933518;29;923;-71
2023/04/22 12:01:45;;;;;;;;;;;19.70;70.40;;;;;;4948244;29;830;-70
2023/04/22 12:04:11;;;;;;;;;;;19.70;70.60;;;;;;4933838;29;1978;-70
2023/04/22 12:06:39;;;;;;;;;;;19.70;69.20;;;;;;4948861;29;896;-70
2023/04/22 12:09:06;;;;;;;;;;;19.70;66.70;;;;;;4934078;29;1204;-70
2023/04/22 12:11:31;;;;;;;;;;;19.60;65.50;;;;;;4934040;29;914;-70
2023/04/22 12:13:57;;;;;;;;;;;19.60;64.70;;;;;;4932320;29;1473;-70
2023/04/22 12:16:22;;;;;;;;;;;19.60;64.70;;;;;;4931352;29;2185;-73
2023/04/22 12:18:52;;;;;;;;;;;19.60;64.20;;;;;;4947596;29;1450;-73
2023/04/22 12:21:22;;;;;;;;;;;19.60;62.50;;;;;;4932532;29;1274;-72
2023/04/22 12:23:48;;;;;;;;;;;19.60;62.60;;;;;;4947341;28;1914;-73
2023/04/22 12:26:14;;;;;;;;;;;19.60;61.80;;;;;;4931340;29;1384;-73
2023/04/22 12:28:40;;;;;;;;;;;19.60;59.20;;;;;;4931647;29;877;-72
2023/04/22 12:31:05;;;;;;;;;;;19.60;60.60;;;;;;4947749;29;867;-73
2023/04/22 12:33:31;;;;;;;;;;;19.50;57.20;;;;;;4931306;29;1485;-71
2023/04/22 12:35:57;;;;;;;;;;;19.50;58.40;;;;;;4932694;29;884;-70
2023/04/22 12:38:22;;;;;;;;;;;19.50;59.50;;;;;;4947594;29;948;-70
2023/04/22 12:40:48;;;;;;;;;;;19.50;59.60;;;;;;4947294;29;2221;-72
2023/04/22 12:43:13;;;;;;;;;;;19.50;58.10;;;;;;4947141;29;1915;-72
2023/04/22 12:45:39;;;;;;;;;;;19.50;56.80;;;;;;4932888;29;1669;-71
2023/04/22 12:48:04;;;;;;;;;;;19.50;59.20;;;;;;4928960;29;1443;-69
2023/04/22 12:50:30;;;;;;;;;;;19.50;61.00;;;;;;4933895;29;1487;-71
2023/04/22 12:52:55;;;;;;;;;;;19.50;60.40;;;;;;4932314;29;1304;-71
2023/04/22 12:55:21;;;;;;;;;;;19.50;59.90;;;;;;4932527;29;1593;-73
2023/04/22 12:57:47;;;;;;;;;;;19.50;60.10;;;;;;4932960;29;1458;-72
2023/04/22 13:00:13;;;;;;;;;;;19.40;60.10;;;;;;4955553;28;1371;-70
2023/04/22 13:02:45;;;;;;;;;;;19.40;59.10;;;;;;4950953;28;1907;-68
2023/04/22 13:05:11;;;;;;;;;;;19.40;59.30;;;;;;4948959;29;1272;-68
2023/04/22 13:07:37;;;;;;;;;;;19.40;59.80;;;;;;4950989;29;907;-67
2023/04/22 13:10:03;;;;;;;;;;;19.40;58.50;;;;;;4948972;29;2191;-69
2023/04/22 13:12:29;;;;;;;;;;;19.40;58.50;;;;;;4931841;29;1174;-70
2023/04/22 13:14:54;;;;;;;;;;;19.40;59.40;;;;;;4933470;29;1431;-70
2023/04/22 13:17:20;;;;;;;;;;;19.40;58.80;;;;;;4935905;29;1355;-70
2023/04/22 13:19:46;;;;;;;;;;;19.40;57.70;;;;;;4950453;29;1321;-70
2023/04/22 13:22:12;;;;;;;;;;;19.40;58.20;;;;;;4950829;29;959;-70
2023/04/22 13:24:38;;;;;;;;;;;19.40;58.10;;;;;;4935852;29;1919;-70
2023/04/22 13:27:05;;;;;;;;;;;19.40;58.10;;;;;;4935862;29;967;-70
2023/04/22 13:29:31;;;;;;;;;;;19.50;57.20;;;;;;4935615;29;857;-70
2023/04/22 13:31:56;;;;;;;;;;;19.50;56.30;;;;;;4935776;29;1300;-71
2023/04/22 13:34:21;;;;;;;;;;;19.50;56.10;;;;;;4935452;29;1393;-70
2023/04/22 13:36:47;;;;;;;;;;;19.50;57.30;;;;;;4935806;29;924;-70
2023/04/22 13:39:12;;;;;;;;;;;19.50;56.30;;;;;;4935871;29;831;-70
2023/04/22 13:41:38;;;;;;;;;;;19.50;55.90;;;;;;4935609;29;904;-70
2023/04/22 13:44:03;;;;;;;;;;;19.50;56.80;;;;;;4934721;29;1946;-70
2023/04/22 13:46:29;;;;;;;;;;;19.50;55.80;;;;;;4949844;29;1238;-71
2023/04/22 13:48:55;;;;;;;;;;;19.50;57.00;;;;;;4935781;28;782;-72
2023/04/22 13:51:21;;;;;;;;;;;19.50;57.10;;;;;;4935695;29;907;-72
2023/04/22 13:53:46;;;;;;;;;;;19.50;57.10;;;;;;4935114;29;1289;-72
2023/04/22 13:56:12;;;;;;;;;;;19.50;56.70;;;;;;4935418;29;1050;-72
2023/04/22 13:58:38;;;;;;;;;;;19.50;57.50;;;;;;4935512;29;879;-72
2023/04/22 14:01:03;;;;;;;;;;;19.50;56.00;;;;;;4933736;29;1875;-72
2023/04/22 14:03:30;;;;;;;;;;;19.50;55.40;;;;;;4934734;29;1926;-71
2023/04/22 14:05:55;;;;;;;;;;;19.50;55.50;;;;;;4935156;29;910;-71
2023/04/22 14:08:20;;;;;;;;;;;19.40;54.40;;;;;;4935187;29;888;-71
2023/04/22 14:10:46;;;;;;;;;;;19.50;53.20;;;;;;4948972;28;1536;-71
2023/04/22 14:13:11;;;;;;;;;;;19.50;54.50;;;;;;4934822;29;1282;-71
2023/04/22 14:15:37;;;;;;;;;;;19.40;53.70;;;;;;4935144;29;829;-71
2023/04/22 14:18:02;;;;;;;;;;;19.40;54.90;;;;;;4934966;29;911;-72
2023/04/22 14:20:28;;;;;;;;;;;19.40;56.50;;;;;;4933825;29;899;-71
2023/04/22 14:22:53;;;;;;;;;;;19.40;55.40;;;;;;4934082;29;2139;-71
2023/04/22 14:25:19;;;;;;;;;;;19.40;54.50;;;;;;4934569;29;1435;-71
2023/04/22 14:27:45;;;;;;;;;;;19.40;54.10;;;;;;4934038;29;2126;-71
2023/04/22 14:30:10;;;;;;;;;;;19.40;53.90;;;;;;4933871;29;1879;-71